createdAt,value
2022-11-10T00:01:21.990Z,98490.75
2022-11-10T00:03:51.432Z,98485.19
2022-11-10T00:06:19.973Z,98498.56
2022-11-10T00:08:49.882Z,98492.72
2022-11-10T00:11:18.687Z,98499.59
2022-11-10T00:14:07.917Z,98499.91
2022-11-10T00:16:55.200Z,98504.31
2022-11-10T00:19:24.326Z,98507.03
2022-11-10T00:21:54.385Z,98514.19
2022-11-10T00:24:23.568Z,98510.44
2022-11-10T00:26:53.447Z,98523.78
2022-11-10T00:29:22.371Z,98528.84
2022-11-10T00:31:52.589Z,98529.78
2022-11-10T00:34:21.152Z,98532.88
2022-11-10T00:36:50.019Z,98536.94
2022-11-10T00:39:18.439Z,98538.09
2022-11-10T00:41:47.415Z,98545.41
2022-11-10T00:44:15.819Z,98547.72
2022-11-10T00:46:44.378Z,98564.13
2022-11-10T00:49:14.487Z,98560.03
2022-11-10T00:51:43.120Z,98569.16
2022-11-10T00:54:12.172Z,98567.50
2022-11-10T00:57:27.258Z,98562.81
2022-11-10T01:00:13.522Z,98573.72
2022-11-10T01:02:42.153Z,98573.72
2022-11-10T01:05:12.727Z,98573.03
2022-11-10T01:07:41.943Z,98577.59
2022-11-10T01:10:10.846Z,98576.66
2022-11-10T01:12:39.444Z,98583.47
2022-11-10T01:15:10.815Z,98581.84
2022-11-10T01:17:40.105Z,98577.94
2022-11-10T01:20:14.200Z,98581.78
2022-11-10T01:22:43.265Z,98584.09
2022-11-10T01:25:13.162Z,98595.47
2022-11-10T01:27:41.812Z,98593.69
2022-11-10T01:30:11.236Z,98595.09
2022-11-10T01:32:39.716Z,98598.03
2022-11-10T01:35:11.491Z,98610.91
2022-11-10T01:37:41.488Z,98595.91
2022-11-10T01:40:14.327Z,98606.16
2022-11-10T01:42:51.727Z,98603.09
2022-11-10T01:45:48.019Z,98603.41
2022-11-10T01:48:33.014Z,98604.50
2022-11-10T01:51:06.974Z,98602.06
2022-11-10T01:53:42.477Z,98595.34
2022-11-10T01:56:15.566Z,98597.75
2022-11-10T01:59:00.983Z,98605.25
2022-11-10T02:01:30.244Z,98607.84
2022-11-10T02:04:02.670Z,98605.75
2022-11-10T02:06:35.704Z,98605.56
2022-11-10T02:09:06.096Z,98608.31
2022-11-10T02:11:36.993Z,98605.38
2022-11-10T02:14:06.383Z,98617.69
2022-11-10T02:16:35.599Z,98616.88
2022-11-10T02:19:41.149Z,98615.09
2022-11-10T02:22:12.172Z,98623.81
2022-11-10T02:24:46.164Z,98618.03
2022-11-10T02:27:15.394Z,98619.00
2022-11-10T02:29:45.907Z,98624.44
2022-11-10T02:32:14.913Z,98627.28
2022-11-10T02:34:44.362Z,98627.31
2022-11-10T02:37:14.832Z,98630.91
2022-11-10T02:39:44.835Z,98624.88
2022-11-10T02:42:14.408Z,98626.88
2022-11-10T02:44:44.087Z,98634.59
2022-11-10T02:47:13.474Z,98629.19
2022-11-10T02:49:45.045Z,98628.25
2022-11-10T02:52:15.812Z,98628.38
2022-11-10T02:54:45.396Z,98630.84
2022-11-10T02:57:15.062Z,98622.00
2022-11-10T02:59:45.151Z,98628.16
2022-11-10T03:02:15.454Z,98627.84
2022-11-10T03:04:45.188Z,98638.56
2022-11-10T03:07:16.595Z,98649.28
2022-11-10T03:09:46.878Z,98655.09
2022-11-10T03:12:15.819Z,98658.63
2022-11-10T03:14:44.815Z,98654.94
2022-11-10T03:17:14.454Z,98661.63
2022-11-10T03:19:44.529Z,98665.69
2022-11-10T03:22:15.616Z,98668.16
2022-11-10T03:24:44.607Z,98683.06
2022-11-10T03:27:13.503Z,98682.13
2022-11-10T03:29:43.158Z,98675.44
2022-11-10T03:32:12.961Z,98681.16
2022-11-10T03:34:42.617Z,98676.63
2022-11-10T03:37:11.522Z,98679.34
2022-11-10T03:39:42.713Z,98685.53
2022-11-10T03:42:12.184Z,98692.53
2022-11-10T03:44:42.612Z,98697.72
2022-11-10T03:47:11.962Z,98702.75
2022-11-10T03:49:41.912Z,98704.84
2022-11-10T03:52:12.750Z,98712.94
2022-11-10T03:54:43.635Z,98708.44
2022-11-10T03:57:13.818Z,98708.44
2022-11-10T03:59:42.982Z,98717.19
2022-11-10T04:02:12.793Z,98718.13
2022-11-10T04:05:11.173Z,98710.34
2022-11-10T04:07:58.789Z,98709.38
2022-11-10T04:10:30.241Z,98725.63
2022-11-10T04:13:17.863Z,98729.22
2022-11-10T04:15:48.046Z,98745.78
2022-11-10T04:18:25.718Z,98744.13
2022-11-10T04:20:56.847Z,98746.44
2022-11-10T04:23:30.555Z,98751.81
2022-11-10T04:26:24.090Z,98753.59
2022-11-10T04:28:58.610Z,98760.19
2022-11-10T04:31:30.717Z,98770.75
2022-11-10T04:34:00.664Z,98775.56
2022-11-10T04:36:34.072Z,98781.44
2022-11-10T04:39:04.754Z,98775.84
2022-11-10T04:41:36.816Z,98776.72
2022-11-10T04:44:05.640Z,98778.06
2022-11-10T04:46:37.807Z,98772.88
2022-11-10T04:49:10.009Z,98775.31
2022-11-10T04:51:40.532Z,98770.94
2022-11-10T04:54:10.079Z,98765.59
2022-11-10T04:56:41.497Z,98771.75
2022-11-10T04:59:10.095Z,98774.53
2022-11-10T05:01:40.740Z,98779.97
2022-11-10T05:04:12.780Z,98790.66
2022-11-10T05:06:42.601Z,98795.88
2022-11-10T05:09:11.221Z,98799.28
2022-11-10T05:11:42.386Z,98800.53
2022-11-10T05:14:13.386Z,98796.69
2022-11-10T05:16:43.980Z,98798.34
2022-11-10T05:19:13.800Z,98788.75
2022-11-10T05:21:44.073Z,98788.47
2022-11-10T05:24:14.038Z,98799.16
2022-11-10T05:26:44.968Z,98799.16
2022-11-10T05:29:14.460Z,98813.09
2022-11-10T05:31:46.782Z,98814.50
2022-11-10T05:34:18.839Z,98817.53
2022-11-10T05:36:48.494Z,98827.53
2022-11-10T05:39:19.195Z,98830.56
2022-11-10T05:41:51.305Z,98833.00
2022-11-10T05:44:21.603Z,98832.34
2022-11-10T05:46:51.420Z,98843.03
2022-11-10T05:49:21.891Z,98846.59
2022-11-10T05:51:52.951Z,98856.03
2022-11-10T05:54:23.286Z,98863.56
2022-11-10T05:56:55.410Z,98869.31
2022-11-10T05:59:25.120Z,98875.03
2022-11-10T06:01:53.675Z,98874.63
2022-11-10T06:04:24.185Z,98887.34
2022-11-10T06:06:54.664Z,98879.53
2022-11-10T06:09:24.377Z,98892.41
2022-11-10T06:11:56.365Z,98901.28
2022-11-10T06:14:28.025Z,98909.88
2022-11-10T06:16:59.924Z,98904.56
2022-11-10T06:19:29.828Z,98914.81
2022-11-10T06:22:03.661Z,98918.09
2022-11-10T06:24:37.397Z,98920.53
2022-11-10T06:27:09.726Z,98928.50
2022-11-10T06:29:40.935Z,98932.75
2022-11-10T06:32:12.041Z,98935.75
2022-11-10T06:34:42.102Z,98940.78
2022-11-10T06:37:12.136Z,98940.38
2022-11-10T06:39:41.576Z,98945.16
2022-11-10T06:42:11.599Z,98944.88
2022-11-10T06:44:42.380Z,98953.22
2022-11-10T06:47:11.924Z,98960.72
2022-11-10T06:49:42.043Z,98964.81
2022-11-10T06:52:11.647Z,98975.09
2022-11-10T06:54:41.574Z,98979.06
2022-11-10T06:57:13.754Z,98978.91
2022-11-10T06:59:44.085Z,98982.56
2022-11-10T07:02:16.951Z,98991.72
2022-11-10T07:04:51.810Z,98989.53
2022-11-10T07:07:21.837Z,98992.53
2022-11-10T07:09:51.169Z,98988.69
2022-11-10T07:12:24.423Z,98989.09
2022-11-10T07:14:53.517Z,98986.19
2022-11-10T07:17:24.522Z,98993.44
2022-11-10T07:19:57.033Z,98994.78
2022-11-10T07:22:30.840Z,99002.00
2022-11-10T07:25:23.068Z,99005.03
2022-11-10T07:27:58.475Z,99009.66
2022-11-10T07:30:31.268Z,99008.09
2022-11-10T07:33:03.415Z,99017.34
2022-11-10T07:35:44.855Z,99022.06
2022-11-10T07:38:18.108Z,99029.03
2022-11-10T07:40:51.659Z,99035.66
2022-11-10T07:43:24.634Z,99043.56
2022-11-10T07:45:55.732Z,99051.31
2022-11-10T07:48:25.777Z,99059.38
2022-11-10T07:50:55.711Z,99067.59
2022-11-10T07:53:26.924Z,99063.56
2022-11-10T07:55:59.755Z,99077.13
2022-11-10T07:58:36.316Z,99085.34
2022-11-10T08:01:08.790Z,99087.94
2022-11-10T08:03:40.257Z,99105.19
2022-11-10T08:06:11.527Z,99100.81
2022-11-10T08:08:41.389Z,99113.72
2022-11-10T08:11:10.655Z,99113.41
2022-11-10T08:13:43.099Z,99117.38
2022-11-10T08:16:12.688Z,99113.78
2022-11-10T08:18:41.738Z,99113.50
2022-11-10T08:21:11.428Z,99123.09
2022-11-10T08:23:41.224Z,99120.34
2022-11-10T08:26:10.830Z,99122.13
2022-11-10T08:28:41.916Z,99126.25
2022-11-10T08:31:11.332Z,99139.81
2022-11-10T08:33:41.637Z,99135.69
2022-11-10T08:36:12.374Z,99141.59
2022-11-10T08:38:42.172Z,99137.31
2022-11-10T08:41:12.302Z,99135.41
2022-11-10T08:43:43.656Z,99147.16
2022-11-10T08:46:14.352Z,99144.13
2022-11-10T08:48:44.806Z,99145.75
2022-11-10T08:51:14.612Z,99147.38
2022-11-10T08:53:44.746Z,99150.50
2022-11-10T08:56:14.221Z,99155.28
2022-11-10T08:58:52.951Z,99168.84
2022-11-10T09:01:23.839Z,99172.16
2022-11-10T09:03:54.052Z,99172.81
2022-11-10T09:06:22.720Z,99179.38
2022-11-10T09:08:53.172Z,99180.72
2022-11-10T09:11:24.111Z,99177.44
2022-11-10T09:13:56.100Z,99184.28
2022-11-10T09:16:25.898Z,99178.38
2022-11-10T09:18:56.117Z,99182.34
2022-11-10T09:21:25.308Z,99186.31
2022-11-10T09:23:54.538Z,99185.34
2022-11-10T09:26:24.227Z,99187.13
2022-11-10T09:28:54.955Z,99194.50
2022-11-10T09:31:24.463Z,99193.53
2022-11-10T09:33:54.888Z,99190.91
2022-11-10T09:36:25.569Z,99188.03
2022-11-10T09:38:55.384Z,99195.19
2022-11-10T09:41:25.116Z,99204.66
2022-11-10T09:44:07.052Z,99209.69
2022-11-10T09:46:44.308Z,99213.81
2022-11-10T09:49:39.369Z,99217.91
2022-11-10T09:52:12.110Z,99224.47
2022-11-10T09:54:46.615Z,99222.84
2022-11-10T09:57:20.344Z,99232.00
2022-11-10T09:59:52.533Z,99234.31
2022-11-10T10:02:31.729Z,99231.56
2022-11-10T10:06:02.742Z,99233.72
2022-11-10T10:08:49.335Z,99244.97
2022-11-10T10:11:35.372Z,99246.03
2022-11-10T10:14:25.695Z,99239.66
2022-11-10T10:17:05.642Z,99225.53
2022-11-10T10:19:50.585Z,99233.03
2022-11-10T10:23:07.051Z,99247.13
2022-11-10T10:25:40.085Z,99245.88
2022-11-10T10:28:21.692Z,99236.09
2022-11-10T10:30:50.788Z,99244.44
2022-11-10T10:33:23.624Z,99239.06
2022-11-10T10:35:52.559Z,99232.72
2022-11-10T10:38:29.081Z,99235.16
2022-11-10T10:41:04.716Z,99223.22
2022-11-10T10:43:35.295Z,99228.44
2022-11-10T10:46:11.815Z,99228.44
2022-11-10T10:48:43.641Z,99229.78
2022-11-10T10:51:30.777Z,99228.66
2022-11-10T10:53:59.904Z,99243.19
2022-11-10T10:56:34.668Z,99226.41
2022-11-10T10:59:06.061Z,99222.69
2022-11-10T11:01:39.621Z,99219.75
2022-11-10T11:04:33.133Z,99213.56
2022-11-10T11:07:06.190Z,99224.16
2022-11-10T11:09:44.594Z,99217.00
2022-11-10T11:12:27.363Z,99228.78
2022-11-10T11:15:20.881Z,99235.63
2022-11-10T11:17:58.139Z,99238.09
2022-11-10T11:20:46.096Z,99243.16
2022-11-10T11:24:01.561Z,99246.78
2022-11-10T11:26:46.484Z,99249.38
2022-11-10T11:29:53.191Z,99247.28
2022-11-10T11:32:52.011Z,99242.72
2022-11-10T11:35:32.740Z,99241.25
2022-11-10T11:38:14.045Z,99242.63
2022-11-10T11:40:53.436Z,99249.19
2022-11-10T11:44:02.322Z,99248.88
2022-11-10T11:46:49.401Z,99243.34
2022-11-10T11:49:54.185Z,99240.59
2022-11-10T11:52:35.496Z,99241.22
2022-11-10T11:55:26.002Z,99237.19
2022-11-10T11:58:32.168Z,99233.63
2022-11-10T12:01:43.990Z,99236.69
2022-11-10T12:04:44.871Z,99235.41
2022-11-10T12:07:52.654Z,99237.06
2022-11-10T12:10:42.956Z,99245.06
2022-11-10T12:13:36.925Z,99241.34
2022-11-10T12:16:17.691Z,99232.34
2022-11-10T12:18:55.985Z,99248.69
2022-11-10T12:21:30.109Z,99246.75
2022-11-10T12:24:33.506Z,99244.78
2022-11-10T12:27:16.575Z,99259.81
2022-11-10T12:29:52.391Z,99250.53
2022-11-10T12:32:30.000Z,99260.34
2022-11-10T12:35:07.943Z,99274.56
2022-11-10T12:37:44.028Z,99272.13
2022-11-10T12:40:20.261Z,99268.38
2022-11-10T12:43:01.443Z,99284.72
2022-11-10T12:45:41.543Z,99282.72
2022-11-10T12:48:13.486Z,99282.91
2022-11-10T12:50:57.200Z,99285.53
2022-11-10T12:53:30.379Z,99286.69
2022-11-10T12:56:06.479Z,99279.66
2022-11-10T12:58:38.037Z,99285.84
2022-11-10T13:01:17.579Z,99276.53
2022-11-10T13:03:57.779Z,99291.75
2022-11-10T13:06:31.824Z,99292.41
2022-11-10T13:09:02.095Z,99297.34
2022-11-10T13:11:35.408Z,99295.19
2022-11-10T13:14:22.273Z,99294.88
2022-11-10T13:16:54.376Z,99296.50
2022-11-10T13:19:54.922Z,99292.41
2022-11-10T13:22:40.583Z,99293.91
2022-11-10T13:25:54.649Z,99300.09
2022-11-10T13:29:29.449Z,99298.16
2022-11-10T13:32:01.151Z,99307.81
2022-11-10T13:34:33.877Z,99308.44
2022-11-10T13:37:04.726Z,99303.72
2022-11-10T13:39:35.160Z,99305.66
2022-11-10T13:42:19.795Z,99294.22
2022-11-10T13:44:51.710Z,99294.22
2022-11-10T13:47:59.041Z,99292.94
2022-11-10T13:50:54.211Z,99297.84
2022-11-10T13:53:38.249Z,99289.69
2022-11-10T13:56:25.997Z,99296.09
2022-11-10T13:58:55.613Z,99297.22
2022-11-10T14:01:32.769Z,99298.03
2022-11-10T14:04:03.106Z,99295.59
2022-11-10T14:06:45.455Z,99295.59
2022-11-10T14:09:31.683Z,99298.72
2022-11-10T14:12:15.322Z,99294.13
2022-11-10T14:14:56.136Z,99298.53
2022-11-10T14:17:34.175Z,99300.00
2022-11-10T14:20:05.771Z,99309.19
2022-11-10T14:22:40.575Z,99312.09
2022-11-10T14:25:25.628Z,99325.53
2022-11-10T14:27:58.218Z,99324.06
2022-11-10T14:30:29.514Z,99338.75
2022-11-10T14:33:03.978Z,99342.31
2022-11-10T14:35:49.271Z,99344.09
2022-11-10T14:38:24.092Z,99356.03
2022-11-10T14:40:57.629Z,99351.63
2022-11-10T14:43:29.175Z,99355.84
2022-11-10T14:45:59.290Z,99362.72
2022-11-10T14:48:32.862Z,99368.41
2022-11-10T14:51:09.313Z,99358.28
2022-11-10T14:53:41.498Z,99363.19
2022-11-10T14:56:20.415Z,99355.81
2022-11-10T14:58:50.988Z,99358.13
2022-11-10T15:01:27.568Z,99358.78
2022-11-10T15:03:59.669Z,99371.53
2022-11-10T15:06:29.666Z,99365.22
2022-11-10T15:08:58.519Z,99367.81
2022-11-10T15:11:40.479Z,99362.09
2022-11-10T15:14:39.772Z,99366.81
2022-11-10T15:17:11.228Z,99365.81
2022-11-10T15:19:55.708Z,99364.00
2022-11-10T15:22:32.764Z,99359.59
2022-11-10T15:25:09.746Z,99359.91
2022-11-10T15:27:39.757Z,99377.25
2022-11-10T15:30:26.830Z,99376.56
2022-11-10T15:33:02.039Z,99371.31
2022-11-10T15:35:34.993Z,99379.97
2022-11-10T15:38:08.393Z,99379.16
2022-11-10T15:40:45.633Z,99379.81
2022-11-10T15:43:28.016Z,99387.00
2022-11-10T15:46:02.238Z,99382.75
2022-11-10T15:48:39.949Z,99386.31
2022-11-10T15:51:19.091Z,99387.97
2022-11-10T15:53:54.640Z,99395.81
2022-11-10T15:56:26.378Z,99388.63
2022-11-10T15:59:02.162Z,99387.97
2022-11-10T16:01:32.793Z,99383.25
2022-11-10T16:04:03.265Z,99376.69
2022-11-10T16:06:34.064Z,99383.06
2022-11-10T16:09:03.272Z,99379.44
2022-11-10T16:11:33.467Z,99378.94
2022-11-10T16:14:05.889Z,99385.97
2022-11-10T16:16:36.720Z,99388.22
2022-11-10T16:19:06.337Z,99384.94
2022-11-10T16:21:36.236Z,99391.13
2022-11-10T16:24:05.707Z,99390.47
2022-11-10T16:26:35.762Z,99396.00
2022-11-10T16:29:10.509Z,99399.91
2022-11-10T16:31:39.815Z,99406.22
2022-11-10T16:34:14.901Z,99405.41
2022-11-10T16:36:48.424Z,99406.53
2022-11-10T16:39:18.739Z,99407.38
2022-11-10T16:41:48.390Z,99414.56
2022-11-10T16:44:24.799Z,99418.13
2022-11-10T16:46:57.639Z,99413.09
2022-11-10T16:49:33.110Z,99415.19
2022-11-10T16:52:15.124Z,99417.97
2022-11-10T16:54:45.006Z,99414.88
2022-11-10T16:57:16.026Z,99419.38
2022-11-10T16:59:45.829Z,99427.72
2022-11-10T17:02:31.144Z,99434.75
2022-11-10T17:05:00.588Z,99435.56
2022-11-10T17:07:31.161Z,99429.97
2022-11-10T17:10:02.898Z,99445.38
2022-11-10T17:12:31.977Z,99447.44
2022-11-10T17:15:02.079Z,99446.47
2022-11-10T17:17:31.264Z,99455.41
2022-11-10T17:20:01.622Z,99456.69
2022-11-10T17:22:36.455Z,99453.75
2022-11-10T17:25:06.133Z,99460.94
2022-11-10T17:27:38.049Z,99458.47
2022-11-10T17:30:12.831Z,99456.69
2022-11-10T17:33:04.319Z,99464.38
2022-11-10T17:35:37.602Z,99468.13
2022-11-10T17:38:19.597Z,99460.41
2022-11-10T17:40:49.420Z,99468.38
2022-11-10T17:43:18.731Z,99468.38
2022-11-10T17:45:48.061Z,99466.91
2022-11-10T17:48:18.186Z,99464.16
2022-11-10T17:50:48.152Z,99463.34
2022-11-10T17:53:23.811Z,99456.31
2022-11-10T17:55:53.180Z,99459.06
2022-11-10T17:58:22.236Z,99457.72
2022-11-10T18:00:52.119Z,99450.88
2022-11-10T18:03:23.963Z,99453.47
2022-11-10T18:05:53.552Z,99453.59
2022-11-10T18:08:25.974Z,99457.19
2022-11-10T18:10:55.589Z,99455.03
2022-11-10T18:13:25.943Z,99455.16
2022-11-10T18:16:01.133Z,99448.97
2022-11-10T18:18:30.325Z,99460.38
2022-11-10T18:20:59.591Z,99452.84
2022-11-10T18:23:30.112Z,99461.66
2022-11-10T18:26:06.120Z,99463.28
2022-11-10T18:28:36.349Z,99460.81
2022-11-10T18:31:10.233Z,99463.44
2022-11-10T18:33:40.821Z,99464.56
2022-11-10T18:36:11.424Z,99470.72
2022-11-10T18:38:42.516Z,99470.06
2022-11-10T18:41:29.704Z,99472.69
2022-11-10T18:44:00.044Z,99472.97
2022-11-10T18:46:29.812Z,99471.19
2022-11-10T18:49:00.101Z,99466.78
2022-11-10T18:51:29.833Z,99468.34
2022-11-10T18:54:00.685Z,99472.72
2022-11-10T18:56:29.331Z,99484.00
2022-11-10T18:58:58.525Z,99498.69
2022-11-10T19:01:28.723Z,99500.50
2022-11-10T19:03:57.389Z,99486.09
2022-11-10T19:06:26.151Z,99493.09
2022-11-10T19:08:57.594Z,99498.03
2022-11-10T19:11:28.136Z,99499.81
2022-11-10T19:14:00.864Z,99496.38
2022-11-10T19:16:31.506Z,99497.34
2022-11-10T19:19:00.611Z,99507.09
2022-11-10T19:21:30.609Z,99505.31
2022-11-10T19:24:00.164Z,99520.03
2022-11-10T19:26:32.932Z,99518.38
2022-11-10T19:29:02.245Z,99521.81
2022-11-10T19:31:31.963Z,99522.75
2022-11-10T19:34:01.769Z,99529.63
2022-11-10T19:36:31.027Z,99529.94
2022-11-10T19:39:01.310Z,99531.84
2022-11-10T19:41:33.021Z,99531.00
2022-11-10T19:44:02.795Z,99527.31
2022-11-10T19:46:36.686Z,99529.22
2022-11-10T19:49:06.736Z,99534.31
2022-11-10T19:51:36.485Z,99530.22
2022-11-10T19:54:06.306Z,99534.91
2022-11-10T19:56:36.885Z,99540.13
2022-11-10T19:59:06.907Z,99542.88
2022-11-10T20:01:37.763Z,99542.72
2022-11-10T20:04:08.650Z,99545.19
2022-11-10T20:06:38.014Z,99545.34
2022-11-10T20:09:10.407Z,99547.13
2022-11-10T20:11:42.907Z,99534.38
2022-11-10T20:14:12.244Z,99539.44
2022-11-10T20:16:41.353Z,99535.16
2022-11-10T20:19:11.482Z,99541.38
2022-11-10T20:21:40.925Z,99537.09
2022-11-10T20:24:10.597Z,99540.66
2022-11-10T20:26:40.985Z,99535.59
2022-11-10T20:29:10.085Z,99534.78
2022-11-10T20:31:38.893Z,99549.50
2022-11-10T20:34:08.863Z,99553.34
2022-11-10T20:36:38.545Z,99559.50
2022-11-10T20:39:07.990Z,99558.03
2022-11-10T20:41:37.933Z,99558.16
2022-11-10T20:44:09.836Z,99553.09
2022-11-10T20:46:55.550Z,99556.66
2022-11-10T20:49:25.826Z,99552.38
2022-11-10T20:51:59.786Z,99555.97
2022-11-10T20:54:29.034Z,99552.53
2022-11-10T20:56:57.972Z,99548.56
2022-11-10T20:59:28.897Z,99552.28
2022-11-10T21:01:58.845Z,99545.69
2022-11-10T21:04:28.788Z,99550.91
2022-11-10T21:06:57.380Z,99548.44
2022-11-10T21:09:27.916Z,99557.38
2022-11-10T21:12:13.996Z,99548.72
2022-11-10T21:14:44.380Z,99539.66
2022-11-10T21:17:14.141Z,99540.22
2022-11-10T21:19:43.410Z,99541.16
2022-11-10T21:22:13.494Z,99541.00
2022-11-10T21:24:43.597Z,99542.00
2022-11-10T21:27:13.952Z,99547.88
2022-11-10T21:29:45.421Z,99545.16
2022-11-10T21:32:15.928Z,99545.97
2022-11-10T21:34:47.323Z,99547.06
2022-11-10T21:37:17.037Z,99542.66
2022-11-10T21:39:47.423Z,99545.28
2022-11-10T21:42:20.918Z,99557.38
2022-11-10T21:44:51.328Z,99561.88
2022-11-10T21:47:20.892Z,99565.75
2022-11-10T21:49:50.425Z,99567.09
2022-11-10T21:52:19.031Z,99560.66
2022-11-10T21:54:49.218Z,99553.66
2022-11-10T21:57:17.751Z,99548.44
2022-11-10T21:59:46.967Z,99552.84
2022-11-10T22:02:17.584Z,99552.72
2022-11-10T22:04:46.214Z,99546.50
2022-11-10T22:07:24.321Z,99543.09
2022-11-10T22:10:11.417Z,99529.25
2022-11-10T22:13:05.353Z,99538.44
2022-11-10T22:15:52.644Z,99544.06
2022-11-10T22:18:41.280Z,99547.50
2022-11-10T22:21:12.005Z,99558.06
2022-11-10T22:23:59.945Z,99563.28
2022-11-10T22:26:29.509Z,99560.66
2022-11-10T22:29:00.673Z,99567.66
2022-11-10T22:31:29.552Z,99567.94
2022-11-10T22:34:01.338Z,99553.25
2022-11-10T22:36:30.970Z,99554.50
2022-11-10T22:39:03.332Z,99559.97
2022-11-10T22:41:50.814Z,99552.84
2022-11-10T22:44:24.801Z,99548.75
2022-11-10T22:46:54.758Z,99556.41
2022-11-10T22:49:27.288Z,99556.69
2022-11-10T22:51:58.817Z,99546.00
2022-11-10T22:54:29.343Z,99551.19
2022-11-10T22:56:58.306Z,99557.53
2022-11-10T22:59:27.805Z,99557.25
2022-11-10T23:01:57.254Z,99561.66
2022-11-10T23:04:28.469Z,99559.72
2022-11-10T23:06:58.179Z,99561.50
2022-11-10T23:09:28.785Z,99565.22
2022-11-10T23:11:57.975Z,99575.09
2022-11-10T23:14:26.987Z,99569.19
2022-11-10T23:16:56.560Z,99576.31
2022-11-10T23:19:27.614Z,99581.97
2022-11-10T23:21:57.632Z,99581.97
2022-11-10T23:24:27.287Z,99577.59
2022-11-10T23:26:57.297Z,99586.63
2022-11-10T23:29:26.620Z,99591.69
2022-11-10T23:31:56.875Z,99586.19
2022-11-10T23:34:27.959Z,99590.63
2022-11-10T23:36:57.617Z,99585.94
2022-11-10T23:39:28.830Z,99586.06
2022-11-10T23:41:58.514Z,99578.94
2022-11-10T23:44:28.959Z,99577.31
2022-11-10T23:46:58.456Z,99580.03
2022-11-10T23:49:29.866Z,99571.66
2022-11-10T23:51:59.360Z,99579.31
2022-11-10T23:54:29.517Z,99573.44
2022-11-10T23:56:58.573Z,99568.09
2022-11-10T23:59:27.694Z,99558.63
